Flight Track Log - Related Links

Times and Time Zones

All times are in EDT time to prevent confusion due to time zone crossing. See the TAM3023 flight status page for this flight to view local times or setup timezone preferences in your user account.

Time Position Orientation Groundspeed Altitude Reporting Facility
EDT Latitude Longitude Course Direction KTS MPH feet Rate Location/Type
Mon 08:43:00 AM -18.4877 -46.2002 148° Southeast  Level Estimated
Mon 08:44:00 AM -18.5670 -46.1475 148° Southeast  Level Estimated
Mon 08:45:00 AM -18.6463 -46.0948 148° Southeast  Level Estimated
Mon 08:46:00 AM -18.7256 -46.0420 148° Southeast  Level Estimated
Mon 08:47:00 AM -18.8049 -45.9892 148° Southeast  Level Estimated
Mon 08:48:00 AM -18.8841 -45.9363 148° Southeast  Level Estimated
Mon 08:49:00 AM -18.9634 -45.8834 148° Southeast  Level Estimated
Mon 08:50:00 AM -19.0426 -45.8304 148° Southeast  Level Estimated
Mon 08:51:00 AM -19.1218 -45.7774 148° Southeast  Level Estimated
Mon 08:52:00 AM -19.2010 -45.7243 148° Southeast  Level Estimated
Mon 08:53:00 AM -19.2802 -45.6712 148° Southeast  Level Estimated
Mon 08:54:00 AM -19.3594 -45.6180 148° Southeast  Level Estimated
Mon 08:55:00 AM -19.4385 -45.5648 148° Southeast  Level Estimated
Mon 08:56:00 AM -19.5177 -45.5115 148° Southeast  Level Estimated
Mon 08:57:00 AM -19.5968 -45.4582 148° Southeast  Level Estimated
Mon 08:58:00 AM -19.6759 -45.4048 148° Southeast  Level Estimated
Mon 08:59:00 AM -19.7550 -45.3514 148° Southeast  Level Estimated
Mon 09:00:00 AM -19.8340 -45.2979 148° Southeast  Level Estimated
Mon 09:01:00 AM -19.9131 -45.2443 148° Southeast  Level Estimated
Mon 09:02:00 AM -19.9921 -45.1907 147° Southeast  Level Estimated
Mon 09:03:00 AM -20.0711 -45.1371 147° Southeast  Level Estimated
Mon 09:04:00 AM -20.1502 -45.0834 147° Southeast  Level Estimated
Mon 09:05:00 AM -20.2292 -45.0296 147° Southeast  Level Estimated
Mon 09:06:00 AM -20.3081 -44.9758 147° Southeast  Level Estimated
Mon 09:07:00 AM -20.3871 -44.9219 147° Southeast  Level Estimated
Mon 09:08:00 AM -20.4660 -44.8680 147° Southeast  Level Estimated
Mon 09:09:00 AM -20.5450 -44.8140 147° Southeast  Level Estimated
Mon 09:10:00 AM -20.6239 -44.7600 147° Southeast  Level Estimated
Mon 09:11:00 AM -20.7027 -44.7059 147° Southeast  Level Estimated
Mon 09:12:00 AM -20.7816 -44.6517 147° Southeast  Level Estimated
Mon 09:13:00 AM -20.8605 -44.5975 147° Southeast  Level Estimated
Mon 09:14:00 AM -20.9393 -44.5433 147° Southeast  Level Estimated
Mon 09:15:00 AM -21.0181 -44.4889 147° Southeast  Level Estimated
Mon 09:16:00 AM -21.0970 -44.4346 147° Southeast  Level Estimated
Mon 09:17:00 AM -21.1757 -44.3801 147° Southeast  Level Estimated
Mon 09:18:00 AM -21.2545 -44.3256 147° Southeast  Level Estimated
Mon 09:19:00 AM -21.3333 -44.2711 147° Southeast  Level Estimated
Mon 09:20:00 AM -21.4120 -44.2165 147° Southeast  Level Estimated
Mon 09:21:00 AM -21.4907 -44.1618 147° Southeast  Level Estimated
Mon 09:22:00 AM -21.5694 -44.1071 147° Southeast  Level Estimated
Mon 09:23:00 AM -21.6481 -44.0523 147° Southeast  Level Estimated
Mon 09:24:00 AM -21.7268 -43.9974 147° Southeast  Level Estimated
Mon 09:25:00 AM -21.8054 -43.9425 147° Southeast  Level Estimated
Mon 09:26:00 AM -21.8841 -43.8876 147° Southeast  Level Estimated
Mon 09:27:00 AM -21.9627 -43.8325 147° Southeast  Level Estimated
Mon 09:28:00 AM -22.0413 -43.7774 147° Southeast  Level Estimated
Mon 09:29:00 AM -22.1198 -43.7223 147° Southeast  Level Estimated
Mon 09:30:00 AM -22.1984 -43.6671 147° Southeast  Level Estimated
Mon 09:31:00 AM -22.2769 -43.6118 147° Southeast  Level Estimated
Mon 09:32:00 AM -22.3554 -43.5565 147° Southeast  Level Estimated
Mon 09:33:00 AM -22.4339 -43.5011 147° Southeast  Level Estimated
Mon 09:34:00 AM -22.5124 -43.4456 147° Southeast  Level Estimated
Mon 09:35:00 AM -22.5909 -43.3901 147° Southeast  Level Estimated
Mon 09:36:00 AM -22.6693 -43.3345 147° Southeast  Level Estimated
Mon 09:37:00 AM -22.7477 -43.2788 147° Southeast  Level Estimated
Mon 09:38:00 AM -22.8262 -43.2231 147° Southeast  Level Estimated
Mon 09:39:00 AM -22.9045 -43.1674 147° Southeast  Level Estimated
Mon 09:40:00 AM -22.9105 -43.1631 147° Southeast  Level Estimated
Mon 09:41:00 AM -22.9105 -43.1631 250° West  Level Estimated
Mon 09:42:00 AM -22.9105 -43.1631 250° West  Level Estimated
Mon 09:43:00 AM -22.9105 -43.1631 250° West  Level Estimated
Mon 09:44:00 AM -22.9105 -43.1631 250° West  Level Estimated
Mon 09:45:00 AM -22.9105 -43.1631 250° West  Level Estimated
Mon 09:46:00 AM -22.9105 -43.1631 250° West  Level Estimated
Mon 09:47:00 AM -22.9105 -43.1631 250° West  Level Estimated
Mon 09:48:00 AM -22.9105 -43.1631 250° West  Level Estimated
Mon 09:49:00 AM -22.9105 -43.1631 250° West  Level Estimated
Mon 09:50:00 AM -22.9105 -43.1631 250° West  Level Estimated
Mon 09:51:00 AM -22.9105 -43.1631 250° West  Level Estimated
Mon 09:52:00 AM -22.9105 -43.1631 250° West  Level Estimated
Mon 09:53:00 AM -22.9105 -43.1631 250° West  Level Estimated
Mon 09:54:00 AM -22.9105 -43.1631 250° West  Level Estimated
Mon 09:55:00 AM -22.9105 -43.1631 250° West  Level Estimated

Login

Don't have an account? Register now (free) for customized features, flight alerts, and more!